RJNY(METAR)
03/23 15:00
METAR RJNY 230600Z 10007KT 9999 FEW030 BKN230 12/02 Q1014 RMK 1CU030
A2994=
戻る
トップページへ戻る
IMOC Co,.Ltd.